Maha Aarti — AVDA — position and weather

sailwx.info

Track history (hours):
 
Tides and Currents Weather Stations Pressure Air Temp Water Temp Dewpoint Dewpoint Depression Visibility Wind Speed Wind Dir Waves Ship Positions

Maha Aarti

Last reported at 2017-Sep-15 10:57 UTC. Time now 2017-Sep-24 21:08 UTC.
Position N 37°21' E 025°54'.
Warning: this ship's position is 9 days out of date.

Length 225 m; draft 12.5 m.

Type: Cargo ship. MMSI: 419093500.

Date/timePositionNaut miles runAvg speedWind from/ knotsBaromVisibWave heightAir tempDewpointWater temp
2017-Sep-15 10:57N 37°21' E 025°54'511.7
2017-Sep-15 10:30N 37°26' E 025°51'611.3
2017-Sep-15 10:00N 37°31' E 025°50'611.8
2017-Sep-15 09:29N 37°37' E 025°50'14411.0
2017-Sep-14 20:29N 40°01' E 025°58'612.0
2017-Sep-14 19:57N 40°01' E 026°06'  
2017-Sep-12 10:44N 42°27' E 031°17'812.1
2017-Sep-12 10:03N 42°31' E 031°26'112.1
2017-Sep-12 09:59N 42°31' E 031°27'612.0
2017-Sep-12 09:30N 42°34' E 031°34'612.1
2017-Sep-12 08:58N 42°37' E 031°41'612.1
2017-Sep-12 08:30N 42°40' E 031°48'612.1
2017-Sep-12 08:00N 42°44' E 031°55'612.3
2017-Sep-12 07:30N 42°47' E 032°02'612.3
2017-Sep-12 07:00N 42°50' E 032°09'612.2
2017-Sep-12 06:30N 42°53' E 032°16'612.1
2017-Sep-12 06:00N 42°56' E 032°23'611.9
2017-Sep-12 05:29N 42°60' E 032°30'611.7
2017-Sep-12 05:00N 43°02' E 032°37'611.6
2017-Sep-12 04:30N 43°06' E 032°44'611.6
2017-Sep-12 04:00N 43°09' E 032°51'611.6
2017-Sep-12 03:30N 43°12' E 032°57'611.5
2017-Sep-12 03:00N 43°15' E 033°04'611.5
2017-Sep-12 02:30N 43°18' E 033°11'611.6
2017-Sep-12 02:00N 43°21' E 033°18'611.8
2017-Sep-12 01:30N 43°24' E 033°24'611.9
2017-Sep-12 01:00N 43°27' E 033°31'711.7
2017-Sep-12 00:26N 43°31' E 033°39'511.8
2017-Sep-12 00:00N 43°33' E 033°45'611.7
2017-Sep-11 23:30N 43°36' E 033°52'611.9
2017-Sep-11 23:00N 43°39' E 033°59'612.0
2017-Sep-11 22:30N 43°42' E 034°06'612.0
2017-Sep-11 22:00N 43°46' E 034°13'612.0
2017-Sep-11 21:30N 43°49' E 034°20'611.9
2017-Sep-11 20:58N 43°52' E 034°28'712.0
2017-Sep-11 20:25N 43°55' E 034°36'512.0
2017-Sep-11 20:00N 43°58' E 034°42'712.1
2017-Sep-11 19:25N 44°02' E 034°50'512.1
2017-Sep-11 18:58N 44°05' E 034°56'612.2
2017-Sep-11 18:30N 44°08' E 035°03'612.1
2017-Sep-11 18:00N 44°11' E 035°10'712.2
2017-Sep-11 17:25N 44°14' E 035°19'712.4
2017-Sep-11 16:51N 44°18' E 035°27'512.7
2017-Sep-11 16:30N 44°21' E 035°32'612.9
2017-Sep-11 16:00N 44°24' E 035°40'713.0
2017-Sep-11 15:30N 44°27' E 035°48'612.8
2017-Sep-11 15:00N 44°31' E 035°56'712.7
2017-Sep-11 14:28N 44°34' E 036°04'612.6
2017-Sep-11 13:58N 44°38' E 036°11'612.5
2017-Sep-11 13:30N 44°40' E 036°18'612.4
2017-Sep-11 13:00N 44°44' E 036°25'611.3
2017-Sep-11 12:30N 44°49' E 036°28'15 9.9
2017-Sep-11 10:57N 45°03' E 036°37'1 0.2
2017-Sep-11 05:02N 45°04' E 036°39'0 0.1
2017-Sep-11 04:59N 45°04' E 036°39'0 0.0
2017-Sep-10 05:45N 45°04' E 036°38'  
Track history (hours):
 
Tides and Currents Weather Stations Pressure Air Temp Water Temp Dewpoint Dewpoint Depression Visibility Wind Speed Wind Dir Waves Ship Positions

Maha Aarti

Last reported at 2017-Sep-15 10:57 UTC. Time now 2017-Sep-24 21:08 UTC.
Position N 37°21' E 025°54'.
Warning: this ship's position is 9 days out of date.

Length 225 m; draft 12.5 m.

Type: Cargo ship. MMSI: 419093500.

Date/timePositionNaut miles runAvg speedWind from/ knotsBaromVisibWave heightAir tempDewpointWater temp
2017-Sep-15 10:57N 37°21' E 025°54'511.7
2017-Sep-15 10:30N 37°26' E 025°51'611.3
2017-Sep-15 10:00N 37°31' E 025°50'611.8
2017-Sep-15 09:29N 37°37' E 025°50'14411.0
2017-Sep-14 20:29N 40°01' E 025°58'612.0
2017-Sep-14 19:57N 40°01' E 026°06'  
2017-Sep-12 10:44N 42°27' E 031°17'812.1
2017-Sep-12 10:03N 42°31' E 031°26'112.1
2017-Sep-12 09:59N 42°31' E 031°27'612.0
2017-Sep-12 09:30N 42°34' E 031°34'612.1
2017-Sep-12 08:58N 42°37' E 031°41'612.1
2017-Sep-12 08:30N 42°40' E 031°48'612.1
2017-Sep-12 08:00N 42°44' E 031°55'612.3
2017-Sep-12 07:30N 42°47' E 032°02'612.3
2017-Sep-12 07:00N 42°50' E 032°09'612.2
2017-Sep-12 06:30N 42°53' E 032°16'612.1
2017-Sep-12 06:00N 42°56' E 032°23'611.9
2017-Sep-12 05:29N 42°60' E 032°30'611.7
2017-Sep-12 05:00N 43°02' E 032°37'611.6
2017-Sep-12 04:30N 43°06' E 032°44'611.6
2017-Sep-12 04:00N 43°09' E 032°51'611.6
2017-Sep-12 03:30N 43°12' E 032°57'611.5
2017-Sep-12 03:00N 43°15' E 033°04'611.5
2017-Sep-12 02:30N 43°18' E 033°11'611.6
2017-Sep-12 02:00N 43°21' E 033°18'611.8
2017-Sep-12 01:30N 43°24' E 033°24'611.9
2017-Sep-12 01:00N 43°27' E 033°31'711.7
2017-Sep-12 00:26N 43°31' E 033°39'511.8
2017-Sep-12 00:00N 43°33' E 033°45'611.7
2017-Sep-11 23:30N 43°36' E 033°52'611.9
2017-Sep-11 23:00N 43°39' E 033°59'612.0
2017-Sep-11 22:30N 43°42' E 034°06'612.0
2017-Sep-11 22:00N 43°46' E 034°13'612.0
2017-Sep-11 21:30N 43°49' E 034°20'611.9
2017-Sep-11 20:58N 43°52' E 034°28'712.0
2017-Sep-11 20:25N 43°55' E 034°36'512.0
2017-Sep-11 20:00N 43°58' E 034°42'712.1
2017-Sep-11 19:25N 44°02' E 034°50'512.1
2017-Sep-11 18:58N 44°05' E 034°56'612.2
2017-Sep-11 18:30N 44°08' E 035°03'612.1
2017-Sep-11 18:00N 44°11' E 035°10'712.2
2017-Sep-11 17:25N 44°14' E 035°19'712.4
2017-Sep-11 16:51N 44°18' E 035°27'512.7
2017-Sep-11 16:30N 44°21' E 035°32'612.9
2017-Sep-11 16:00N 44°24' E 035°40'713.0
2017-Sep-11 15:30N 44°27' E 035°48'612.8
2017-Sep-11 15:00N 44°31' E 035°56'712.7
2017-Sep-11 14:28N 44°34' E 036°04'612.6
2017-Sep-11 13:58N 44°38' E 036°11'612.5
2017-Sep-11 13:30N 44°40' E 036°18'612.4
2017-Sep-11 13:00N 44°44' E 036°25'611.3
2017-Sep-11 12:30N 44°49' E 036°28'15 9.9
2017-Sep-11 10:57N 45°03' E 036°37'1 0.2
2017-Sep-11 05:02N 45°04' E 036°39'0 0.1
2017-Sep-11 04:59N 45°04' E 036°39'0 0.0
2017-Sep-10 05:45N 45°04' E 036°38'  

Dump ship's entire track history